Time;durP1;ratioP1;P1;durP2;ratioP2;P2;SDS_P1;SDS_P2;PMS_P1;PMS_P2;Temp;Humidity;BMP_temperature;BMP_pressure;BME280_temperature;BME280_humidity;BME280_pressure;Samples;Min_cycle;Max_cycle;Signal;HPM_P1;HPM_P2
2022/08/10 00:00:31;;;;;;;3.55;1.30;;;14.30;99.90;;;;;;4972123;28;20215;-81
2022/08/10 00:03:03;;;;;;;4.70;1.45;;;14.50;99.90;;;;;;4972364;28;20199;-81
2022/08/10 00:05:33;;;;;;;3.05;0.90;;;14.60;99.90;;;;;;4972763;28;20665;-81
2022/08/10 00:08:06;;;;;;;4.75;1.20;;;14.60;99.90;;;;;;4971900;28;20234;-82
2022/08/10 00:10:37;;;;;;;5.70;1.02;;;14.60;99.90;;;;;;4978899;28;20231;-82
2022/08/10 00:13:08;;;;;;;2.88;1.42;;;14.70;99.90;;;;;;4973142;28;20570;-82
2022/08/10 00:15:39;;;;;;;3.45;1.00;;;14.80;99.90;;;;;;4970602;28;20751;-81
2022/08/10 00:18:10;;;;;;;6.78;1.50;;;14.90;99.90;;;;;;4969367;28;20227;-81
2022/08/10 00:20:40;;;;;;;2.38;0.93;;;15.10;99.90;;;;;;4970664;28;20215;-81
2022/08/10 00:23:13;;;;;;;5.50;1.30;;;15.10;99.90;;;;;;4966707;28;20215;-82
2022/08/10 00:25:52;;;;;;;4.20;1.05;;;15.00;99.90;;;;;;4969593;28;20215;-82
2022/08/10 00:28:23;;;;;;;1.38;0.93;;;15.00;99.90;;;;;;4969054;28;20255;-81
2022/08/10 00:30:54;;;;;;;4.00;1.20;;;15.10;99.90;;;;;;4969373;28;20215;-82
2022/08/10 00:33:25;;;;;;;4.20;1.02;;;15.20;99.90;;;;;;4980572;28;20215;-82
2022/08/10 00:35:56;;;;;;;3.50;0.95;;;15.20;99.90;;;;;;4988116;28;20215;-82
2022/08/10 00:38:29;;;;;;;3.47;1.13;;;15.20;99.90;;;;;;4972829;28;20215;-82
2022/08/10 00:40:59;;;;;;;3.30;1.10;;;15.30;99.90;;;;;;4970860;28;20219;-79
2022/08/10 00:43:30;;;;;;;2.75;0.85;;;15.30;99.90;;;;;;4971273;28;20211;-80
2022/08/10 00:46:01;;;;;;;3.38;0.98;;;15.30;99.90;;;;;;4973342;28;20198;-81
2022/08/10 00:48:32;;;;;;;7.72;1.20;;;15.30;99.90;;;;;;4967558;28;20218;-83
2022/08/10 00:51:03;;;;;;;5.70;1.05;;;15.30;99.90;;;;;;4973312;28;20191;-83
2022/08/10 00:53:36;;;;;;;6.05;1.00;;;15.30;99.90;;;;;;4972500;28;20591;-85
2022/08/10 00:56:08;;;;;;;4.47;1.10;;;15.40;99.90;;;;;;4969912;28;20229;-81
2022/08/10 00:58:41;;;;;;;2.63;0.68;;;15.50;99.90;;;;;;4969395;28;20242;-83
2022/08/10 01:01:11;;;;;;;5.05;0.90;;;15.50;99.90;;;;;;4971735;28;20681;-83
2022/08/10 01:03:42;;;;;;;10.25;1.92;;;15.60;99.90;;;;;;4971048;28;20211;-80
2022/08/10 01:06:17;;;;;;;5.72;1.48;;;15.70;99.90;;;;;;4968571;28;20235;-83
2022/08/10 01:08:53;;;;;;;4.32;0.90;;;15.70;99.90;;;;;;4969326;28;20242;-81
2022/08/10 01:11:31;;;;;;;3.45;1.00;;;15.80;99.90;;;;;;4951544;28;20223;-82
2022/08/10 01:14:06;;;;;;;5.97;1.20;;;15.90;99.90;;;;;;4950680;28;20200;-83
2022/08/10 01:16:43;;;;;;;4.07;0.80;;;16.00;99.90;;;;;;4947335;28;20218;-83
2022/08/10 01:19:39;;;;;;;2.58;0.75;;;16.10;99.90;;;;;;4944987;28;20239;-83
2022/08/10 01:22:33;;;;;;;6.72;1.60;;;16.20;99.90;;;;;;4950346;29;20203;-82
2022/08/10 01:25:22;;;;;;;4.90;1.17;;;16.40;99.90;;;;;;4947804;28;20199;-83
2022/08/10 01:28:06;;;;;;;5.22;0.90;;;16.50;99.90;;;;;;4948558;29;20582;-83
2022/08/10 01:30:40;;;;;;;3.58;0.90;;;16.60;99.90;;;;;;4949899;29;20202;-84
2022/08/10 01:33:14;;;;;;;4.55;1.08;;;16.70;99.90;;;;;;4947676;29;20196;-83
2022/08/10 01:35:49;;;;;;;4.93;0.82;;;16.80;99.90;;;;;;4953149;28;20200;-86
2022/08/10 01:38:23;;;;;;;3.03;0.70;;;16.90;99.90;;;;;;4948368;28;20231;-83
2022/08/10 01:40:58;;;;;;;5.28;0.80;;;17.00;99.90;;;;;;4946767;28;20203;-86
2022/08/10 01:43:32;;;;;;;4.13;0.70;;;17.10;99.90;;;;;;4953344;28;20195;-85
2022/08/10 01:46:06;;;;;;;2.28;0.60;;;17.10;99.90;;;;;;4953617;28;20251;-84
2022/08/10 01:48:42;;;;;;;6.35;0.90;;;17.20;99.90;;;;;;4952941;29;20203;-84
2022/08/10 01:51:18;;;;;;;4.32;0.80;;;17.20;99.90;;;;;;4947158;29;20294;-85
2022/08/10 01:53:55;;;;;;;3.35;0.80;;;17.20;99.90;;;;;;4953248;28;20208;-84
2022/08/10 01:56:29;;;;;;;3.83;0.90;;;17.10;99.90;;;;;;4951814;29;20595;-84
2022/08/10 01:59:02;;;;;;;4.45;0.70;;;16.90;99.90;;;;;;4952233;28;21641;-84
2022/08/10 02:01:39;;;;;;;2.40;0.60;;;16.90;99.90;;;;;;4953488;29;20196;-85
2022/08/10 02:04:13;;;;;;;2.90;1.10;;;16.90;99.90;;;;;;4944249;28;20188;-84
2022/08/10 02:06:47;;;;;;;3.15;0.68;;;17.00;99.90;;;;;;4951001;28;20220;-85
2022/08/10 02:09:21;;;;;;;3.75;0.60;;;17.00;99.90;;;;;;4952533;28;20929;-85
2022/08/10 02:11:53;;;;;;;3.22;0.82;;;17.10;99.90;;;;;;4972750;28;20206;-85
2022/08/10 02:14:26;;;;;;;3.75;0.80;;;17.10;99.90;;;;;;4974551;28;20188;-84
2022/08/10 02:17:02;;;;;;;3.08;1.05;;;17.10;99.90;;;;;;4973424;28;20639;-84
2022/08/10 02:19:35;;;;;;;2.53;0.70;;;17.10;99.90;;;;;;4975519;28;20230;-84
2022/08/10 02:22:08;;;;;;;1.92;0.60;;;17.10;99.90;;;;;;4969131;28;20211;-84
2022/08/10 02:24:41;;;;;;;1.55;0.50;;;17.00;99.90;;;;;;4960432;28;20188;-84
2022/08/10 02:27:13;;;;;;;1.92;0.65;;;17.00;99.90;;;;;;4970987;28;20183;-85
2022/08/10 02:29:45;;;;;;;4.07;0.82;;;16.90;99.90;;;;;;4963658;28;20195;-84
2022/08/10 02:32:19;;;;;;;3.78;0.88;;;16.60;99.90;;;;;;4971999;28;20578;-85
2022/08/10 02:34:51;;;;;;;5.45;1.10;;;16.60;99.90;;;;;;4971984;28;20606;-86
2022/08/10 02:37:26;;;;;;;4.00;0.98;;;16.60;99.90;;;;;;4972125;28;20567;-85
2022/08/10 02:39:57;;;;;;;4.43;1.30;;;16.50;99.90;;;;;;4968245;28;20199;-85
2022/08/10 02:42:30;;;;;;;2.13;1.10;;;16.60;99.90;;;;;;4969896;28;20203;-84
2022/08/10 02:45:10;;;;;;;4.90;1.02;;;16.50;99.90;;;;;;4971815;28;20246;-85
2022/08/10 02:47:46;;;;;;;5.35;1.00;;;16.50;99.90;;;;;;4972243;28;20203;-84
2022/08/10 02:50:26;;;;;;;4.32;0.90;;;16.40;99.90;;;;;;4971929;28;20207;-85
2022/08/10 02:53:03;;;;;;;4.32;0.70;;;16.40;99.90;;;;;;4971995;28;20199;-85
2022/08/10 02:55:42;;;;;;;5.82;0.70;;;16.60;99.90;;;;;;4971801;28;20662;-84
2022/08/10 02:58:17;;;;;;;4.85;0.98;;;16.90;99.90;;;;;;4956794;28;20733;-84
2022/08/10 03:00:51;;;;;;;6.72;1.15;;;17.00;99.90;;;;;;4971277;28;20257;-85
2022/08/10 03:03:27;;;;;;;4.45;0.80;;;17.00;99.90;;;;;;4969426;28;20626;-84
2022/08/10 03:06:01;;;;;;;4.28;0.90;;;17.10;99.90;;;;;;4970210;28;20202;-82
2022/08/10 03:08:37;;;;;;;4.32;0.70;;;17.20;99.90;;;;;;4968124;28;20190;-86
2022/08/10 03:11:11;;;;;;;5.25;0.70;;;17.40;99.90;;;;;;4967944;28;20230;-85
2022/08/10 03:13:43;;;;;;;5.05;0.80;;;17.40;99.90;;;;;;4966983;28;20191;-81
2022/08/10 03:16:15;;;;;;;2.13;0.60;;;17.30;99.90;;;;;;4978068;28;20200;-84
2022/08/10 03:18:49;;;;;;;1.95;0.55;;;17.20;99.90;;;;;;4982537;28;20215;-83
2022/08/10 03:21:21;;;;;;;2.38;0.60;;;17.20;99.90;;;;;;4977224;28;20199;-85
2022/08/10 03:23:53;;;;;;;1.27;0.40;;;17.20;99.90;;;;;;4975945;28;20656;-83
2022/08/10 03:26:24;;;;;;;0.75;0.50;;;17.20;99.90;;;;;;4977708;28;20543;-83
2022/08/10 03:28:56;;;;;;;1.77;0.50;;;17.10;99.90;;;;;;4974669;28;20210;-84
2022/08/10 03:31:27;;;;;;;1.13;0.70;;;17.20;99.90;;;;;;4960217;28;20215;-85
2022/08/10 03:34:02;;;;;;;1.23;0.60;;;17.40;99.90;;;;;;4972955;28;20508;-85
2022/08/10 03:36:34;;;;;;;1.67;0.50;;;17.50;99.90;;;;;;4984592;28;20208;-84
2022/08/10 03:39:05;;;;;;;2.38;0.60;;;17.80;99.90;;;;;;4964291;28;20234;-84
2022/08/10 03:41:40;;;;;;;2.30;0.63;;;17.80;99.90;;;;;;4966235;28;20190;-83
2022/08/10 03:44:12;;;;;;;1.45;0.55;;;17.90;99.90;;;;;;4969583;28;20612;-85
2022/08/10 03:46:45;;;;;;;3.97;0.63;;;17.90;99.90;;;;;;4971626;28;20195;-84
2022/08/10 03:49:20;;;;;;;1.70;0.45;;;17.90;99.90;;;;;;4970692;28;20598;-82
2022/08/10 03:51:51;;;;;;;2.15;0.50;;;18.00;99.90;;;;;;4972911;28;20245;-82
2022/08/10 03:54:22;;;;;;;3.15;1.00;;;18.00;99.90;;;;;;4970000;28;20200;-82
2022/08/10 03:56:54;;;;;;;1.67;0.47;;;18.00;99.90;;;;;;4965079;28;20206;-83
2022/08/10 03:59:26;;;;;;;2.05;0.60;;;18.00;99.90;;;;;;4971043;28;20694;-81
2022/08/10 04:01:57;;;;;;;1.63;0.47;;;17.90;99.90;;;;;;4965798;28;20224;-83
2022/08/10 04:04:30;;;;;;;1.27;0.50;;;17.90;99.90;;;;;;4968846;28;20214;-82
2022/08/10 04:07:01;;;;;;;2.33;0.50;;;17.90;99.90;;;;;;4968016;28;20699;-82
2022/08/10 04:09:34;;;;;;;3.05;0.60;;;18.00;99.90;;;;;;4967463;28;20745;-83
2022/08/10 04:12:06;;;;;;;1.52;0.50;;;17.90;99.90;;;;;;4971410;28;20220;-83
2022/08/10 04:14:39;;;;;;;0.82;0.50;;;17.80;99.90;;;;;;4967390;28;20215;-83
2022/08/10 04:17:09;;;;;;;1.15;0.35;;;17.70;99.90;;;;;;4971139;28;20206;-83
2022/08/10 04:19:47;;;;;;;2.13;0.60;;;17.60;99.90;;;;;;4970130;28;20635;-83
2022/08/10 04:22:20;;;;;;;1.15;0.50;;;17.50;99.90;;;;;;4961558;28;20207;-83
2022/08/10 04:25:02;;;;;;;1.45;0.45;;;17.50;99.90;;;;;;4966002;28;20203;-83
2022/08/10 04:27:33;;;;;;;0.93;0.30;;;17.50;99.90;;;;;;4967544;28;20199;-83
2022/08/10 04:30:04;;;;;;;0.50;0.30;;;17.50;99.90;;;;;;4968559;28;20219;-84
2022/08/10 04:32:37;;;;;;;0.40;0.30;;;17.60;99.90;;;;;;4967267;28;20215;-85
2022/08/10 04:35:11;;;;;;;0.43;0.30;;;17.50;99.90;;;;;;4972923;28;20195;-83
2022/08/10 04:37:42;;;;;;;0.32;0.30;;;17.50;99.90;;;;;;4966617;28;20257;-83
2022/08/10 04:40:14;;;;;;;0.50;0.40;;;17.50;99.90;;;;;;4964741;28;20705;-83
2022/08/10 04:42:45;;;;;;;1.77;0.45;;;17.60;99.90;;;;;;4970448;28;20223;-82
2022/08/10 04:45:17;;;;;;;0.88;0.40;;;17.60;99.90;;;;;;4967985;28;20208;-82
2022/08/10 04:47:47;;;;;;;3.92;0.70;;;17.60;99.90;;;;;;4970363;28;20203;-82
2022/08/10 04:50:20;;;;;;;1.55;0.50;;;17.70;99.90;;;;;;4970759;28;20267;-82
2022/08/10 04:52:51;;;;;;;1.95;0.75;;;17.70;99.90;;;;;;4969253;28;20207;-81
2022/08/10 04:55:22;;;;;;;1.20;0.50;;;17.70;99.90;;;;;;4969480;28;20199;-82
2022/08/10 04:57:53;;;;;;;2.63;0.57;;;17.60;99.90;;;;;;4969739;28;20223;-82
2022/08/10 05:00:26;;;;;;;1.40;0.40;;;17.50;99.90;;;;;;4966572;28;20220;-82
2022/08/10 05:02:57;;;;;;;0.70;0.40;;;17.50;99.90;;;;;;4970799;28;20597;-82
2022/08/10 05:05:30;;;;;;;1.48;0.40;;;17.40;99.90;;;;;;4965544;28;20203;-81
2022/08/10 05:08:01;;;;;;;1.52;0.50;;;17.20;99.90;;;;;;4970835;28;20212;-80
2022/08/10 05:10:31;;;;;;;2.10;0.68;;;17.20;99.90;;;;;;4968872;28;20243;-81
2022/08/10 05:13:02;;;;;;;0.52;0.45;;;17.20;99.90;;;;;;4964345;28;20286;-82
2022/08/10 05:15:33;;;;;;;1.48;0.65;;;17.30;99.90;;;;;;4970282;28;20225;-81
2022/08/10 05:18:03;;;;;;;2.65;0.70;;;17.30;99.90;;;;;;4969288;28;20198;-81
2022/08/10 05:20:37;;;;;;;3.25;0.70;;;17.40;99.90;;;;;;4970428;28;20253;-81
2022/08/10 05:23:08;;;;;;;1.17;0.40;;;17.40;99.90;;;;;;4967897;28;20223;-81
2022/08/10 05:25:38;;;;;;;2.55;0.75;;;17.50;99.90;;;;;;4967763;28;20593;-81
2022/08/10 05:28:09;;;;;;;3.38;1.00;;;17.60;99.90;;;;;;4968539;28;20235;-80
2022/08/10 05:30:40;;;;;;;2.97;0.70;;;17.60;99.90;;;;;;4966858;28;20235;-80
2022/08/10 05:33:11;;;;;;;2.53;0.80;;;17.60;99.90;;;;;;4970327;28;20206;-81
2022/08/10 05:35:43;;;;;;;1.20;0.50;;;17.60;99.90;;;;;;4970658;28;20253;-81
2022/08/10 05:38:16;;;;;;;3.45;0.75;;;17.50;99.90;;;;;;4965849;28;20220;-81
2022/08/10 05:40:47;;;;;;;1.75;0.70;;;17.40;99.90;;;;;;4968684;28;20219;-80
2022/08/10 05:43:22;;;;;;;4.15;0.70;;;17.30;99.90;;;;;;4970215;28;20226;-81
2022/08/10 05:45:54;;;;;;;1.45;0.60;;;17.20;99.90;;;;;;4967259;28;20195;-82
2022/08/10 05:48:25;;;;;;;0.98;0.40;;;17.20;99.90;;;;;;4969290;28;20203;-83
2022/08/10 05:51:01;;;;;;;2.28;0.57;;;17.10;99.90;;;;;;4966897;28;20262;-84
2022/08/10 05:53:32;;;;;;;1.98;0.50;;;17.00;99.90;;;;;;4967740;28;20357;-83
2022/08/10 05:56:04;;;;;;;1.42;0.40;;;17.00;99.90;;;;;;4963888;28;20746;-82
2022/08/10 05:58:35;;;;;;;3.60;0.85;;;17.00;99.90;;;;;;4969490;28;20219;-85
2022/08/10 06:01:09;;;;;;;1.05;0.40;;;17.00;99.90;;;;;;4971470;28;20212;-84
2022/08/10 06:03:52;;;;;;;0.98;0.40;;;17.00;99.90;;;;;;4967017;28;20217;-82
2022/08/10 06:06:25;;;;;;;0.93;0.35;;;17.10;99.90;;;;;;4969291;28;21025;-82
2022/08/10 06:08:58;;;;;;;0.63;0.40;;;17.20;99.90;;;;;;4980901;28;20197;-84
2022/08/10 06:11:30;;;;;;;0.93;0.40;;;17.10;99.90;;;;;;4952784;28;20656;-82
2022/08/10 06:16:59;;;;;;;3.13;1.00;;;17.00;99.90;;;;;;4930624;29;20200;-83
2022/08/10 06:19:34;;;;;;;4.00;0.90;;;17.00;99.90;;;;;;4947370;29;20224;-83
2022/08/10 06:22:07;;;;;;;3.45;1.20;;;17.00;99.90;;;;;;4947554;28;20270;-83
2022/08/10 06:24:41;;;;;;;2.88;0.73;;;16.90;99.90;;;;;;4949203;29;20204;-83
2022/08/10 06:27:12;;;;;;;1.45;0.52;;;16.90;99.90;;;;;;4951736;29;20231;-83
2022/08/10 06:29:45;;;;;;;2.00;0.68;;;16.90;99.90;;;;;;4947000;29;20227;-83
2022/08/10 06:32:16;;;;;;;1.63;0.40;;;16.90;99.90;;;;;;4951323;29;20211;-84
2022/08/10 06:34:49;;;;;;;1.85;0.40;;;16.90;99.90;;;;;;4951813;29;20191;-83
2022/08/10 06:37:26;;;;;;;1.30;0.50;;;16.90;99.90;;;;;;4945443;28;20207;-84
2022/08/10 06:39:57;;;;;;;1.02;0.40;;;17.00;99.90;;;;;;4945086;29;20246;-82
2022/08/10 06:42:32;;;;;;;1.40;0.60;;;17.00;99.90;;;;;;4950430;29;20188;-84
2022/08/10 06:45:07;;;;;;;1.27;0.60;;;17.00;99.90;;;;;;4951718;29;20203;-85
2022/08/10 06:47:45;;;;;;;2.60;0.60;;;17.00;99.90;;;;;;4951352;29;20200;-82
2022/08/10 06:50:22;;;;;;;2.80;0.75;;;16.90;99.90;;;;;;4940838;29;20215;-82
2022/08/10 06:52:57;;;;;;;3.67;0.73;;;16.90;99.90;;;;;;4947675;28;20568;-83
2022/08/10 06:55:29;;;;;;;1.42;0.52;;;16.80;99.90;;;;;;4941715;29;20211;-84
2022/08/10 06:58:00;;;;;;;2.03;0.50;;;16.60;99.90;;;;;;4947001;29;20704;-82
2022/08/10 07:00:33;;;;;;;1.70;0.57;;;16.50;99.90;;;;;;4947470;28;20224;-83
2022/08/10 07:03:11;;;;;;;3.83;0.77;;;16.40;99.90;;;;;;4946759;28;20238;-83
2022/08/10 07:05:46;;;;;;;2.17;0.70;;;16.30;99.90;;;;;;4947292;28;20200;-83
2022/08/10 07:08:20;;;;;;;1.00;0.40;;;16.20;99.90;;;;;;4948751;29;20192;-83
2022/08/10 07:10:52;;;;;;;2.15;0.50;;;16.20;99.90;;;;;;4965818;28;20706;-83
2022/08/10 07:13:24;;;;;;;1.98;0.50;;;16.10;99.90;;;;;;4962004;28;20204;-82
2022/08/10 07:15:56;;;;;;;4.15;1.13;;;16.00;99.90;;;;;;4957639;28;20215;-82
2022/08/10 07:18:28;;;;;;;1.55;0.57;;;15.90;99.90;;;;;;4970827;28;20203;-83
2022/08/10 07:21:00;;;;;;;2.47;0.60;;;15.80;99.90;;;;;;4968815;28;20561;-84
2022/08/10 07:23:36;;;;;;;2.28;0.60;;;15.80;99.90;;;;;;4967747;28;20725;-80
2022/08/10 07:26:10;;;;;;;2.60;0.70;;;15.80;99.90;;;;;;4968991;28;20218;-80
2022/08/10 07:28:41;;;;;;;4.10;1.08;;;15.70;99.90;;;;;;4966509;28;20690;-81
2022/08/10 07:31:13;;;;;;;1.98;0.80;;;15.70;99.90;;;;;;4969471;28;20222;-81
2022/08/10 07:33:45;;;;;;;3.50;1.10;;;15.70;99.90;;;;;;4966576;28;20200;-80
2022/08/10 07:36:18;;;;;;;1.55;0.90;;;15.70;99.90;;;;;;4969356;28;20206;-81
2022/08/10 07:38:54;;;;;;;1.02;0.93;;;15.60;99.90;;;;;;4967411;28;20205;-80
2022/08/10 07:41:29;;;;;;;2.30;1.10;;;15.60;99.90;;;;;;4966974;28;20203;-80
2022/08/10 07:44:01;;;;;;;2.80;1.23;;;15.60;99.90;;;;;;4965543;28;20501;-80
2022/08/10 07:46:34;;;;;;;5.82;1.48;;;15.60;99.90;;;;;;4961775;28;20199;-80
2022/08/10 07:49:09;;;;;;;2.92;1.65;;;15.50;99.90;;;;;;4967561;28;20707;-80
2022/08/10 07:51:41;;;;;;;4.15;1.52;;;15.50;99.90;;;;;;4972676;28;20772;-78
2022/08/10 07:54:16;;;;;;;3.25;1.25;;;15.50;99.90;;;;;;4964624;28;20192;-80
2022/08/10 07:56:50;;;;;;;2.95;1.08;;;15.50;99.90;;;;;;4967095;28;20623;-80
2022/08/10 07:59:27;;;;;;;2.28;1.05;;;15.40;99.90;;;;;;4969794;28;20200;-80
2022/08/10 08:01:59;;;;;;;2.65;1.00;;;15.40;99.90;;;;;;4970225;28;20191;-80
2022/08/10 08:04:32;;;;;;;3.30;1.02;;;15.40;99.90;;;;;;4967518;28;21010;-80
2022/08/10 08:07:03;;;;;;;5.40;1.02;;;15.40;99.90;;;;;;4965128;28;20195;-78
2022/08/10 08:09:38;;;;;;;4.03;0.90;;;15.40;99.90;;;;;;4965575;28;20223;-80
2022/08/10 08:12:11;;;;;;;4.00;1.08;;;15.40;99.90;;;;;;4970132;28;20277;-81
2022/08/10 08:14:46;;;;;;;4.43;0.93;;;15.40;99.90;;;;;;4969569;28;20195;-80
2022/08/10 08:17:19;;;;;;;5.47;1.10;;;15.40;99.90;;;;;;4968623;28;20199;-79
2022/08/10 08:19:51;;;;;;;8.23;4.50;;;15.40;99.90;;;;;;4969396;28;20214;-80
2022/08/10 08:22:22;;;;;;;7.60;5.18;;;15.40;99.90;;;;;;4968769;28;20199;-80
2022/08/10 08:24:56;;;;;;;8.38;4.60;;;15.40;99.90;;;;;;4967504;28;20203;-80
2022/08/10 08:27:28;;;;;;;7.43;3.40;;;15.30;99.90;;;;;;4973000;28;20195;-79
2022/08/10 08:30:00;;;;;;;3.40;2.40;;;15.40;99.90;;;;;;4962457;28;20296;-80
2022/08/10 08:32:33;;;;;;;3.22;1.85;;;15.40;99.90;;;;;;4969779;28;20203;-80
2022/08/10 08:35:06;;;;;;;4.70;2.30;;;15.40;99.90;;;;;;4965903;28;20204;-79
2022/08/10 08:37:38;;;;;;;9.77;4.43;;;15.30;99.90;;;;;;4968473;28;20203;-80
2022/08/10 08:40:15;;;;;;;7.60;4.65;;;15.30;99.90;;;;;;4972886;28;20227;-80
2022/08/10 08:43:14;;;;;;;9.57;6.68;;;15.30;99.90;;;;;;4973205;28;20199;-81
2022/08/10 08:46:07;;;;;;;9.45;5.95;;;15.30;99.90;;;;;;4973049;28;20574;-80
2022/08/10 08:49:20;;;;;;;6.20;3.60;;;15.30;99.90;;;;;;4959594;28;20191;-80
2022/08/10 08:52:04;;;;;;;4.15;2.13;;;15.30;99.90;;;;;;4968064;28;20199;-81
2022/08/10 08:54:46;;;;;;;3.28;1.38;;;15.30;99.90;;;;;;4969412;28;20215;-80
2022/08/10 08:57:28;;;;;;;2.47;1.52;;;15.30;99.90;;;;;;4972548;28;20721;-80
2022/08/10 09:00:08;;;;;;;7.30;2.00;;;15.40;99.90;;;;;;4966128;28;20230;-79
2022/08/10 09:03:11;;;;;;;4.22;2.00;;;15.40;99.90;;;;;;4969349;28;20253;-80
2022/08/10 09:05:52;;;;;;;5.85;2.00;;;15.30;99.90;;;;;;4971340;28;20195;-81
2022/08/10 09:08:55;;;;;;;5.43;2.00;;;15.40;99.90;;;;;;4972166;28;20204;-80
2022/08/10 09:11:39;;;;;;;4.78;2.20;;;15.40;99.90;;;;;;4946170;28;20608;-80
2022/08/10 09:14:22;;;;;;;8.10;2.08;;;15.30;99.90;;;;;;4955350;28;20231;-81
2022/08/10 09:17:01;;;;;;;6.25;2.65;;;15.30;99.90;;;;;;4955213;28;20202;-80
2022/08/10 09:19:39;;;;;;;6.80;2.78;;;15.30;99.90;;;;;;4950715;28;20200;-80
2022/08/10 09:22:22;;;;;;;7.28;3.20;;;15.30;99.90;;;;;;4953157;29;20200;-80
2022/08/10 09:24:58;;;;;;;5.70;2.75;;;15.30;99.90;;;;;;4952650;28;20664;-80
2022/08/10 09:27:36;;;;;;;9.15;5.38;;;15.30;99.90;;;;;;4952378;28;20227;-81
2022/08/10 09:30:11;;;;;;;10.13;5.00;;;15.30;99.90;;;;;;4948573;28;20291;-81
2022/08/10 09:32:47;;;;;;;8.88;4.50;;;15.30;99.90;;;;;;4953071;29;20231;-81
2022/08/10 09:35:28;;;;;;;10.40;4.32;;;15.30;99.90;;;;;;4952870;29;20283;-81
2022/08/10 09:38:12;;;;;;;7.72;3.97;;;15.30;99.90;;;;;;4948708;28;20699;-80
2022/08/10 09:40:55;;;;;;;7.50;3.67;;;15.30;99.90;;;;;;4947098;28;20227;-80
2022/08/10 09:43:32;;;;;;;10.52;3.85;;;15.30;99.90;;;;;;4947333;28;20208;-80
2022/08/10 09:46:11;;;;;;;7.43;3.38;;;15.20;99.90;;;;;;4952063;29;20291;-81
2022/08/10 09:48:55;;;;;;;6.60;3.10;;;15.20;99.90;;;;;;4952692;28;20207;-80
2022/08/10 09:51:36;;;;;;;7.70;2.92;;;15.20;99.90;;;;;;4952689;29;20636;-81
2022/08/10 09:54:22;;;;;;;7.50;2.83;;;15.20;99.90;;;;;;4952691;28;20207;-81
2022/08/10 09:57:02;;;;;;;6.40;2.88;;;15.20;99.90;;;;;;4952595;29;20231;-81
2022/08/10 09:59:42;;;;;;;6.50;2.95;;;15.20;99.90;;;;;;4950092;29;20192;-81
2022/08/10 10:02:23;;;;;;;8.35;3.00;;;15.20;99.90;;;;;;4948719;28;20227;-81
2022/08/10 10:05:08;;;;;;;7.70;3.00;;;15.20;99.90;;;;;;4948680;28;20746;-80
2022/08/10 10:07:44;;;;;;;8.43;3.20;;;15.20;99.90;;;;;;4952597;28;20722;-82
2022/08/10 10:10:21;;;;;;;6.97;2.92;;;15.10;99.90;;;;;;4959472;28;20274;-81
2022/08/10 10:12:56;;;;;;;4.65;2.55;;;15.10;99.90;;;;;;4965380;28;20191;-83
2022/08/10 10:15:36;;;;;;;6.55;2.88;;;15.10;99.90;;;;;;4971425;28;20198;-82
2022/08/10 10:18:32;;;;;;;6.97;3.05;;;15.10;99.90;;;;;;4972222;28;20277;-81
2022/08/10 10:21:08;;;;;;;4.88;2.88;;;15.10;99.90;;;;;;4965711;28;20718;-81
2022/08/10 10:23:51;;;;;;;6.07;2.90;;;15.10;99.90;;;;;;4971640;28;20194;-82
2022/08/10 10:26:25;;;;;;;5.57;3.13;;;15.10;99.90;;;;;;4970224;28;20199;-82
2022/08/10 10:29:14;;;;;;;5.30;3.17;;;15.00;99.90;;;;;;4969610;28;20206;-82
2022/08/10 10:31:52;;;;;;;4.38;3.15;;;15.00;99.90;;;;;;4967512;28;20234;-79
2022/08/10 10:34:34;;;;;;;5.43;3.60;;;15.00;99.90;;;;;;4966219;28;20195;-80
2022/08/10 10:37:07;;;;;;;6.38;3.42;;;15.00;99.90;;;;;;4969175;28;20210;-80
2022/08/10 10:39:41;;;;;;;6.55;3.35;;;14.90;99.90;;;;;;4971430;28;20734;-78
2022/08/10 10:42:22;;;;;;;5.18;2.58;;;14.90;99.90;;;;;;4963350;28;20305;-79
2022/08/10 10:45:05;;;;;;;5.70;3.35;;;14.80;99.90;;;;;;4968908;28;20191;-80
2022/08/10 10:47:50;;;;;;;4.65;2.90;;;14.80;99.90;;;;;;4967682;28;20199;-80
2022/08/10 10:50:30;;;;;;;5.65;3.30;;;14.80;99.90;;;;;;4972955;28;20218;-80
2022/08/10 10:53:14;;;;;;;5.78;3.13;;;14.80;99.90;;;;;;4970756;28;20203;-80
2022/08/10 10:55:52;;;;;;;7.28;3.22;;;14.80;99.90;;;;;;4970884;28;20202;-80
2022/08/10 10:58:30;;;;;;;6.47;3.28;;;14.80;99.90;;;;;;4971147;28;20203;-80
2022/08/10 11:01:10;;;;;;;7.15;3.50;;;14.80;99.90;;;;;;4968457;28;20293;-81
2022/08/10 11:03:57;;;;;;;5.90;3.35;;;14.70;99.90;;;;;;4969558;28;20482;-85
2022/08/10 11:06:46;;;;;;;7.05;3.08;;;14.70;99.90;;;;;;4968615;28;20207;-80
2022/08/10 11:09:24;;;;;;;6.72;3.10;;;14.70;99.90;;;;;;4966561;28;20283;-80
2022/08/10 11:12:00;;;;;;;5.43;3.28;;;14.60;99.90;;;;;;4967013;28;20195;-81
2022/08/10 11:14:34;;;;;;;4.97;2.95;;;14.60;99.90;;;;;;4963345;28;20195;-79
2022/08/10 11:17:11;;;;;;;7.82;3.00;;;14.60;99.90;;;;;;4969823;28;20191;-79
2022/08/10 11:19:48;;;;;;;5.35;2.95;;;14.60;99.90;;;;;;4969215;28;20195;-80
2022/08/10 11:22:29;;;;;;;4.25;3.00;;;14.50;99.90;;;;;;4968116;28;20227;-80
2022/08/10 11:25:07;;;;;;;3.80;2.88;;;14.50;99.90;;;;;;4963382;28;20214;-82
2022/08/10 11:27:48;;;;;;;6.45;2.95;;;14.50;99.90;;;;;;4965166;28;20283;-84
2022/08/10 11:30:22;;;;;;;8.02;3.42;;;14.50;99.90;;;;;;4966943;28;20195;-81
2022/08/10 11:33:08;;;;;;;9.77;4.63;;;14.50;99.90;;;;;;4972344;28;20650;-81
2022/08/10 11:35:46;;;;;;;6.97;4.15;;;14.50;99.90;;;;;;4972165;28;20231;-79
2022/08/10 11:38:28;;;;;;;9.73;4.00;;;14.40;99.90;;;;;;4971244;28;20195;-79
2022/08/10 11:41:06;;;;;;;6.95;4.00;;;14.40;99.90;;;;;;4970816;28;20294;-80
2022/08/10 11:43:43;;;;;;;7.80;3.95;;;14.40;99.90;;;;;;4974641;28;20253;-79
2022/08/10 11:46:21;;;;;;;6.43;3.38;;;14.40;99.90;;;;;;4973555;28;20207;-81
2022/08/10 11:49:07;;;;;;;8.35;3.92;;;14.40;99.90;;;;;;4973800;28;20199;-80
2022/08/10 11:51:45;;;;;;;7.15;3.58;;;14.30;99.90;;;;;;4970039;28;20749;-80
2022/08/10 11:54:30;;;;;;;6.68;3.70;;;14.30;99.90;;;;;;4969423;28;20210;-82
2022/08/10 11:57:03;;;;;;;7.15;3.40;;;14.30;99.90;;;;;;4972102;28;20650;-82
2022/08/10 12:02:26;;;;;;;4.75;3.13;;;14.30;99.90;;;;;;4973459;28;20234;-79
2022/08/10 12:05:01;;;;;;;4.63;2.85;;;14.30;99.90;;;;;;4968501;28;20191;-83
2022/08/10 12:07:34;;;;;;;5.95;3.00;;;14.30;99.90;;;;;;4971895;28;20194;-84
2022/08/10 12:10:07;;;;;;;5.20;3.30;;;14.20;99.90;;;;;;4962013;28;20231;-79
2022/08/10 12:12:46;;;;;;;4.63;2.88;;;14.20;99.90;;;;;;4973436;28;20196;-81
2022/08/10 12:15:23;;;;;;;5.35;3.10;;;14.20;99.90;;;;;;4970014;28;20214;-80
2022/08/10 12:17:56;;;;;;;5.40;3.60;;;14.20;99.90;;;;;;4963346;28;20195;-83
2022/08/10 12:20:32;;;;;;;6.20;3.45;;;14.20;99.90;;;;;;4966169;28;20196;-80
2022/08/10 12:23:11;;;;;;;6.75;3.30;;;14.30;99.90;;;;;;4967978;28;20195;-80
2022/08/10 12:25:49;;;;;;;4.35;3.17;;;14.20;99.90;;;;;;4970646;28;20199;-79
2022/08/10 12:28:26;;;;;;;6.30;3.00;;;14.20;99.90;;;;;;4967412;28;20253;-80
2022/08/10 12:31:00;;;;;;;6.05;3.20;;;14.20;99.90;;;;;;4972959;28;20574;-80
2022/08/10 12:33:36;;;;;;;5.10;3.00;;;14.20;99.90;;;;;;4969846;28;20277;-82
2022/08/10 12:36:13;;;;;;;5.60;3.10;;;14.20;99.90;;;;;;4971138;28;20207;-81
2022/08/10 12:38:53;;;;;;;4.97;3.15;;;14.20;99.90;;;;;;4969759;28;20203;-82
2022/08/10 12:41:32;;;;;;;3.25;2.63;;;14.10;99.90;;;;;;4967652;28;20233;-80
2022/08/10 12:44:08;;;;;;;4.22;2.80;;;14.10;99.90;;;;;;4968817;28;20199;-81
2022/08/10 12:46:54;;;;;;;5.10;2.90;;;14.10;99.90;;;;;;4971766;28;20623;-81
2022/08/10 12:49:32;;;;;;;5.55;3.05;;;14.10;99.90;;;;;;4966412;28;20266;-81
2022/08/10 12:52:12;;;;;;;5.25;3.30;;;14.10;99.90;;;;;;4971202;28;20239;-83
2022/08/10 12:54:45;;;;;;;6.70;3.08;;;14.10;99.90;;;;;;4967142;28;20203;-83
2022/08/10 12:57:20;;;;;;;4.85;3.10;;;14.00;99.90;;;;;;4973611;28;20199;-83
2022/08/10 12:59:53;;;;;;;5.75;3.10;;;14.00;99.90;;;;;;4973001;28;20202;-79
2022/08/10 13:02:29;;;;;;;4.50;3.10;;;14.00;99.90;;;;;;4973249;28;20278;-82
2022/08/10 13:05:02;;;;;;;5.78;3.47;;;14.00;99.90;;;;;;4972225;28;20202;-81
2022/08/10 13:07:36;;;;;;;5.40;3.20;;;14.00;99.90;;;;;;4969843;28;20200;-81
2022/08/10 13:10:10;;;;;;;5.85;3.63;;;14.00;99.90;;;;;;4969289;28;20304;-85
2022/08/10 13:12:44;;;;;;;5.15;3.53;;;13.90;99.90;;;;;;4973970;28;20195;-82
2022/08/10 13:15:21;;;;;;;6.32;3.95;;;13.90;99.90;;;;;;4971599;28;20198;-83
2022/08/10 13:17:53;;;;;;;6.03;3.38;;;13.80;99.90;;;;;;4971538;28;20678;-80
2022/08/10 13:20:27;;;;;;;5.88;3.55;;;13.80;99.90;;;;;;4972523;28;20567;-81
2022/08/10 13:23:01;;;;;;;6.10;4.15;;;13.80;99.90;;;;;;4973566;28;20277;-81
2022/08/10 13:25:37;;;;;;;5.28;3.78;;;13.80;99.90;;;;;;4971444;28;20195;-81
2022/08/10 13:28:12;;;;;;;6.40;3.78;;;13.80;99.90;;;;;;4966927;28;20203;-80
2022/08/10 13:30:44;;;;;;;4.72;3.38;;;13.80;99.90;;;;;;4972795;28;20206;-81
2022/08/10 13:33:18;;;;;;;5.35;3.47;;;13.90;99.90;;;;;;4965841;28;20545;-80